DLH5CF LICA-EDDM
Flight info
| Callsign | DLH5CF |
|---|---|
| Flight time | 1h 28m |
| Altitude | 36000 |
| Route | ARBUM DCT EVINO DCT BEDPI DCT IBENI DCT PESUT DCT RASTA DCT REDBU Q112 NAPSA NAPSA4A |
| Aircraft | A320/M-SDE2E3FGIJ1LORWXYZ/HB1 |
Departure
| Time | 2026-05-06 14:18 |
|---|---|
| Airport | Lamezia Terme Sant'Eufemia International Airport (LICA) |
Arrival
| Time | 2026-05-06 15:47 |
|---|---|
| Airport | Munich Airport (EDDM) |
| Time | Latitude | Longitude | Altitude | Speed | Heading |
|---|---|---|---|---|---|
| 2026-05-06 13:50 | 38.90868 | 16.24529 | 32 ft | 0 kts | 56° |
| 2026-05-06 14:13 | 38.90870 | 16.24536 | 31 ft | 1 kts | 68° |
| 2026-05-06 14:13 | 38.90864 | 16.24547 | 32 ft | 1 kts | 147° |
| 2026-05-06 14:13 | 38.90857 | 16.24539 | 32 ft | 2 kts | 220° |
| 2026-05-06 14:14 | 38.90833 | 16.24528 | 32 ft | 5 kts | 189° |
| 2026-05-06 14:14 | 38.90805 | 16.24534 | 32 ft | 4 kts | 145° |
| 2026-05-06 14:14 | 38.90758 | 16.24580 | 32 ft | 15 kts | 143° |
| 2026-05-06 14:14 | 38.90709 | 16.24694 | 32 ft | 15 kts | 99° |
| 2026-05-06 14:15 | 38.90692 | 16.24833 | 32 ft | 18 kts | 97° |
| 2026-05-06 14:15 | 38.90672 | 16.25007 | 33 ft | 22 kts | 99° |
| 2026-05-06 14:15 | 38.90650 | 16.25218 | 33 ft | 26 kts | 96° |
| 2026-05-06 14:15 | 38.90620 | 16.25462 | 33 ft | 29 kts | 99° |
| 2026-05-06 14:16 | 38.90590 | 16.25724 | 32 ft | 31 kts | 98° |
| 2026-05-06 14:16 | 38.90562 | 16.25965 | 34 ft | 26 kts | 98° |
| 2026-05-06 14:16 | 38.90543 | 16.26127 | 33 ft | 16 kts | 101° |
| 2026-05-06 14:16 | 38.90483 | 16.26203 | 31 ft | 12 kts | 153° |
| 2026-05-06 14:17 | 38.90406 | 16.26255 | 32 ft | 12 kts | 152° |
| 2026-05-06 14:17 | 38.90334 | 16.26267 | 34 ft | 10 kts | 203° |
| 2026-05-06 14:17 | 38.90311 | 16.26193 | 35 ft | 11 kts | 279° |
| 2026-05-06 14:17 | 38.90346 | 16.25890 | 31 ft | 71 kts | 278° |
| 2026-05-06 14:18 | 38.90452 | 16.24990 | 36 ft | 133 kts | 278° |
| 2026-05-06 14:18 | 38.90601 | 16.23692 | 448 ft | 149 kts | 278° |
| 2026-05-06 14:18 | 38.90763 | 16.22375 | 1114 ft | 151 kts | 277° |
| 2026-05-06 14:18 | 38.90935 | 16.20942 | 1621 ft | 173 kts | 277° |
| 2026-05-06 14:19 | 38.91123 | 16.19341 | 2128 ft | 190 kts | 277° |
| 2026-05-06 14:19 | 38.91328 | 16.17563 | 2555 ft | 213 kts | 277° |
| 2026-05-06 14:19 | 38.91554 | 16.15583 | 3075 ft | 235 kts | 277° |
| 2026-05-06 14:19 | 38.91806 | 16.13401 | 3552 ft | 259 kts | 280° |
| 2026-05-06 14:20 | 38.92573 | 16.11260 | 4301 ft | 272 kts | 308° |
| 2026-05-06 14:20 | 38.93795 | 16.09381 | 5287 ft | 276 kts | 309° |
| 2026-05-06 14:20 | 38.95041 | 16.07506 | 6317 ft | 276 kts | 309° |
| 2026-05-06 14:20 | 38.96295 | 16.05629 | 7298 ft | 277 kts | 308° |
| 2026-05-06 14:21 | 38.97553 | 16.03745 | 8271 ft | 279 kts | 308° |
| 2026-05-06 14:21 | 38.98816 | 16.01847 | 9244 ft | 280 kts | 308° |
| 2026-05-06 14:21 | 39.00085 | 15.99933 | 10181 ft | 282 kts | 307° |
| 2026-05-06 14:21 | 39.01397 | 15.97936 | 10621 ft | 304 kts | 307° |
| 2026-05-06 14:22 | 39.02870 | 15.95834 | 10912 ft | 330 kts | 314° |
| 2026-05-06 14:22 | 39.04748 | 15.94018 | 11465 ft | 345 kts | 326° |
| 2026-05-06 14:22 | 39.06926 | 15.92644 | 12238 ft | 352 kts | 332° |
| 2026-05-06 14:22 | 39.09166 | 15.91334 | 13012 ft | 355 kts | 332° |
| 2026-05-06 14:23 | 39.11419 | 15.90006 | 13806 ft | 359 kts | 332° |
| 2026-05-06 14:23 | 39.13699 | 15.88655 | 14501 ft | 362 kts | 331° |
| 2026-05-06 14:23 | 39.16000 | 15.87287 | 15183 ft | 366 kts | 331° |
| 2026-05-06 14:23 | 39.18329 | 15.85901 | 15819 ft | 371 kts | 332° |
| 2026-05-06 14:24 | 39.20684 | 15.84501 | 16480 ft | 375 kts | 331° |
| 2026-05-06 14:24 | 39.23064 | 15.83087 | 17126 ft | 379 kts | 331° |
| 2026-05-06 14:24 | 39.25471 | 15.81663 | 17769 ft | 383 kts | 331° |
| 2026-05-06 14:24 | 39.27979 | 15.80419 | 18383 ft | 391 kts | 340° |
| 2026-05-06 14:25 | 39.30641 | 15.79586 | 18921 ft | 397 kts | 345° |
| 2026-05-06 14:25 | 39.33376 | 15.78977 | 19468 ft | 401 kts | 347° |
| 2026-05-06 14:25 | 39.36144 | 15.78442 | 20010 ft | 404 kts | 348° |
| 2026-05-06 14:25 | 39.38931 | 15.77879 | 20531 ft | 407 kts | 347° |
| 2026-05-06 14:26 | 39.41730 | 15.77245 | 21071 ft | 410 kts | 345° |
| 2026-05-06 14:26 | 39.44501 | 15.76548 | 21575 ft | 413 kts | 345° |
| 2026-05-06 14:26 | 39.47360 | 15.75779 | 22093 ft | 415 kts | 344° |
| 2026-05-06 14:26 | 39.50156 | 15.75001 | 22596 ft | 418 kts | 344° |
| 2026-05-06 14:27 | 39.53050 | 15.74192 | 23107 ft | 421 kts | 344° |
| 2026-05-06 14:27 | 39.55891 | 15.73407 | 23597 ft | 424 kts | 344° |
| 2026-05-06 14:27 | 39.58791 | 15.72614 | 24017 ft | 427 kts | 344° |
| 2026-05-06 14:27 | 39.61707 | 15.71826 | 24455 ft | 429 kts | 344° |
| 2026-05-06 14:28 | 39.64635 | 15.71040 | 24893 ft | 430 kts | 344° |
| 2026-05-06 14:28 | 39.67573 | 15.70251 | 25314 ft | 432 kts | 344° |
| 2026-05-06 14:28 | 39.70518 | 15.69460 | 25745 ft | 433 kts | 344° |
| 2026-05-06 14:28 | 39.73473 | 15.68665 | 26159 ft | 434 kts | 344° |
| 2026-05-06 14:29 | 39.76434 | 15.67865 | 26595 ft | 436 kts | 344° |
| 2026-05-06 14:29 | 39.79405 | 15.67059 | 27016 ft | 437 kts | 344° |
| 2026-05-06 14:29 | 39.82384 | 15.66249 | 27432 ft | 438 kts | 344° |
| 2026-05-06 14:29 | 39.85374 | 15.65435 | 27833 ft | 440 kts | 343° |
| 2026-05-06 14:30 | 39.88376 | 15.64621 | 28237 ft | 441 kts | 343° |
| 2026-05-06 14:30 | 39.91384 | 15.63804 | 28592 ft | 443 kts | 343° |
| 2026-05-06 14:30 | 39.94414 | 15.62975 | 28858 ft | 447 kts | 343° |
| 2026-05-06 14:30 | 39.97463 | 15.62137 | 29191 ft | 449 kts | 343° |
| 2026-05-06 14:31 | 40.00522 | 15.61300 | 29536 ft | 451 kts | 343° |
| 2026-05-06 14:31 | 40.03596 | 15.60462 | 29865 ft | 452 kts | 343° |
| 2026-05-06 14:31 | 40.06686 | 15.59623 | 30171 ft | 454 kts | 343° |
| 2026-05-06 14:31 | 40.09781 | 15.58777 | 30485 ft | 455 kts | 342° |
| 2026-05-06 14:32 | 40.12875 | 15.57934 | 30919 ft | 453 kts | 342° |
| 2026-05-06 14:32 | 40.15954 | 15.57096 | 31339 ft | 451 kts | 342° |
| 2026-05-06 14:32 | 40.19020 | 15.56256 | 31744 ft | 450 kts | 342° |
| 2026-05-06 14:32 | 40.22081 | 15.55412 | 32155 ft | 448 kts | 342° |
| 2026-05-06 14:33 | 40.25127 | 15.54573 | 32557 ft | 447 kts | 341° |
| 2026-05-06 14:33 | 40.28169 | 15.53735 | 32960 ft | 446 kts | 341° |
| 2026-05-06 14:33 | 40.31197 | 15.52900 | 33353 ft | 445 kts | 341° |
| 2026-05-06 14:33 | 40.34225 | 15.52063 | 33732 ft | 444 kts | 341° |
| 2026-05-06 14:34 | 40.37244 | 15.51232 | 34093 ft | 443 kts | 341° |
| 2026-05-06 14:34 | 40.40256 | 15.50404 | 34408 ft | 442 kts | 341° |
| 2026-05-06 14:34 | 40.43259 | 15.49575 | 34722 ft | 441 kts | 341° |
| 2026-05-06 14:34 | 40.46264 | 15.48743 | 35040 ft | 441 kts | 341° |
| 2026-05-06 14:35 | 40.49263 | 15.47912 | 35341 ft | 440 kts | 341° |
| 2026-05-06 14:35 | 40.52254 | 15.47086 | 35637 ft | 439 kts | 341° |
| 2026-05-06 14:35 | 40.55249 | 15.46258 | 35892 ft | 440 kts | 340° |
| 2026-05-06 14:35 | 40.58246 | 15.45425 | 36002 ft | 441 kts | 340° |
| 2026-05-06 14:36 | 40.64240 | 15.43763 | 36020 ft | 440 kts | 340° |
| 2026-05-06 14:36 | 40.70229 | 15.42095 | 36012 ft | 440 kts | 341° |
| 2026-05-06 14:37 | 40.76220 | 15.40424 | 36013 ft | 441 kts | 340° |
| 2026-05-06 14:37 | 40.82229 | 15.38746 | 36014 ft | 441 kts | 340° |
| 2026-05-06 14:38 | 40.88196 | 15.37073 | 36011 ft | 441 kts | 340° |
| 2026-05-06 14:38 | 40.94201 | 15.35386 | 36008 ft | 441 kts | 340° |
| 2026-05-06 14:39 | 41.00211 | 15.33700 | 36018 ft | 441 kts | 340° |
| 2026-05-06 14:39 | 41.06224 | 15.32011 | 36016 ft | 442 kts | 340° |
| 2026-05-06 14:40 | 41.12229 | 15.30313 | 36011 ft | 441 kts | 340° |
| 2026-05-06 14:40 | 41.18234 | 15.28616 | 36025 ft | 441 kts | 340° |
| 2026-05-06 14:41 | 41.24243 | 15.26913 | 36000 ft | 441 kts | 340° |
| 2026-05-06 14:41 | 41.30250 | 15.25216 | 35984 ft | 441 kts | 340° |
| 2026-05-06 14:42 | 41.36257 | 15.23510 | 35972 ft | 441 kts | 340° |
| 2026-05-06 14:42 | 41.42260 | 15.21794 | 35975 ft | 442 kts | 340° |
| 2026-05-06 14:43 | 41.48269 | 15.20074 | 35973 ft | 442 kts | 340° |
| 2026-05-06 14:43 | 41.54286 | 15.18355 | 35963 ft | 442 kts | 340° |
| 2026-05-06 14:44 | 41.60304 | 15.16644 | 35961 ft | 442 kts | 340° |
| 2026-05-06 14:45 | 41.69340 | 15.14046 | 35945 ft | 443 kts | 340° |
| 2026-05-06 14:45 | 41.75378 | 15.12311 | 35944 ft | 444 kts | 340° |
| 2026-05-06 14:46 | 41.81416 | 15.10569 | 35939 ft | 444 kts | 340° |
| 2026-05-06 14:46 | 41.87452 | 15.08821 | 35929 ft | 444 kts | 340° |
| 2026-05-06 14:47 | 41.93488 | 15.07068 | 35935 ft | 444 kts | 340° |
| 2026-05-06 14:47 | 41.99522 | 15.05324 | 35933 ft | 443 kts | 340° |
| 2026-05-06 14:48 | 42.05552 | 15.03570 | 35936 ft | 444 kts | 341° |
| 2026-05-06 14:48 | 42.11601 | 15.01786 | 35895 ft | 446 kts | 341° |
| 2026-05-06 14:49 | 42.17682 | 15.00016 | 35893 ft | 448 kts | 341° |
| 2026-05-06 14:49 | 42.23782 | 14.98252 | 35906 ft | 449 kts | 341° |
| 2026-05-06 14:50 | 42.29904 | 14.96469 | 35907 ft | 451 kts | 341° |
| 2026-05-06 14:50 | 42.36005 | 14.94680 | 35900 ft | 452 kts | 341° |
| 2026-05-06 14:51 | 42.42166 | 14.92869 | 35916 ft | 453 kts | 341° |
| 2026-05-06 14:51 | 42.48334 | 14.91049 | 35929 ft | 454 kts | 341° |
| 2026-05-06 14:52 | 42.54514 | 14.89219 | 35927 ft | 455 kts | 341° |
| 2026-05-06 14:52 | 42.60699 | 14.87389 | 35917 ft | 455 kts | 341° |
| 2026-05-06 14:53 | 42.66895 | 14.85556 | 35932 ft | 456 kts | 341° |
| 2026-05-06 14:53 | 42.73096 | 14.83711 | 35918 ft | 457 kts | 341° |
| 2026-05-06 14:54 | 42.79313 | 14.81863 | 35917 ft | 458 kts | 341° |
| 2026-05-06 14:54 | 42.85540 | 14.80015 | 35919 ft | 458 kts | 341° |
| 2026-05-06 14:55 | 42.91777 | 14.78157 | 35930 ft | 459 kts | 341° |
| 2026-05-06 14:55 | 42.98018 | 14.76278 | 35923 ft | 460 kts | 341° |
| 2026-05-06 14:56 | 43.04264 | 14.74402 | 35930 ft | 460 kts | 341° |
| 2026-05-06 14:56 | 43.10519 | 14.72522 | 35936 ft | 460 kts | 341° |
| 2026-05-06 14:57 | 43.15714 | 14.70962 | 35936 ft | 460 kts | 341° |
| 2026-05-06 14:57 | 43.21965 | 14.69075 | 35937 ft | 460 kts | 341° |
| 2026-05-06 14:58 | 43.28220 | 14.67188 | 35961 ft | 460 kts | 341° |
| 2026-05-06 14:58 | 43.34472 | 14.65287 | 35953 ft | 460 kts | 341° |
| 2026-05-06 14:59 | 43.40724 | 14.63382 | 35950 ft | 460 kts | 341° |
| 2026-05-06 14:59 | 43.46973 | 14.61482 | 35945 ft | 460 kts | 341° |
| 2026-05-06 15:00 | 43.53219 | 14.59581 | 35947 ft | 460 kts | 341° |
| 2026-05-06 15:00 | 43.59467 | 14.57677 | 35942 ft | 460 kts | 341° |
| 2026-05-06 15:01 | 43.65721 | 14.55763 | 35943 ft | 460 kts | 341° |
| 2026-05-06 15:01 | 43.71975 | 14.53838 | 35953 ft | 461 kts | 341° |
| 2026-05-06 15:02 | 43.78230 | 14.51912 | 35949 ft | 461 kts | 341° |
| 2026-05-06 15:02 | 43.84491 | 14.49985 | 35943 ft | 461 kts | 341° |
| 2026-05-06 15:03 | 43.90754 | 14.48051 | 35946 ft | 461 kts | 341° |
| 2026-05-06 15:03 | 43.97015 | 14.46112 | 35943 ft | 461 kts | 340° |
| 2026-05-06 15:04 | 44.03277 | 14.44157 | 35946 ft | 461 kts | 340° |
| 2026-05-06 15:04 | 44.09537 | 14.42214 | 35970 ft | 461 kts | 341° |
| 2026-05-06 15:05 | 44.15786 | 14.40245 | 35963 ft | 460 kts | 340° |
| 2026-05-06 15:05 | 44.22031 | 14.38252 | 35958 ft | 460 kts | 340° |
| 2026-05-06 15:06 | 44.28270 | 14.36253 | 35965 ft | 460 kts | 340° |
| 2026-05-06 15:06 | 44.34509 | 14.34257 | 35967 ft | 460 kts | 341° |
| 2026-05-06 15:07 | 44.40746 | 14.32266 | 35985 ft | 460 kts | 341° |
| 2026-05-06 15:07 | 44.46981 | 14.30274 | 35974 ft | 459 kts | 341° |
| 2026-05-06 15:08 | 44.53213 | 14.28275 | 35973 ft | 459 kts | 341° |
| 2026-05-06 15:08 | 44.59390 | 14.26270 | 35970 ft | 459 kts | 341° |
| 2026-05-06 15:09 | 44.65604 | 14.24253 | 35971 ft | 458 kts | 341° |
| 2026-05-06 15:09 | 44.71822 | 14.22241 | 35973 ft | 458 kts | 341° |
| 2026-05-06 15:10 | 44.78041 | 14.20227 | 35964 ft | 459 kts | 341° |
| 2026-05-06 15:10 | 44.84261 | 14.18209 | 35983 ft | 459 kts | 341° |
| 2026-05-06 15:11 | 44.90485 | 14.16177 | 35980 ft | 459 kts | 341° |
| 2026-05-06 15:11 | 44.96717 | 14.14134 | 35962 ft | 460 kts | 341° |
| 2026-05-06 15:12 | 45.02965 | 14.12092 | 35963 ft | 461 kts | 341° |
| 2026-05-06 15:12 | 45.09209 | 14.10045 | 35958 ft | 461 kts | 341° |
| 2026-05-06 15:13 | 45.15461 | 14.07989 | 35958 ft | 461 kts | 341° |
| 2026-05-06 15:13 | 45.21716 | 14.05926 | 35959 ft | 462 kts | 341° |
| 2026-05-06 15:14 | 45.27977 | 14.03859 | 35962 ft | 462 kts | 341° |
| 2026-05-06 15:14 | 45.34198 | 14.01798 | 35966 ft | 462 kts | 341° |
| 2026-05-06 15:15 | 45.40468 | 13.99724 | 35939 ft | 463 kts | 341° |
| 2026-05-06 15:15 | 45.46748 | 13.97644 | 35932 ft | 464 kts | 341° |
| 2026-05-06 15:16 | 45.53032 | 13.95548 | 35922 ft | 464 kts | 341° |
| 2026-05-06 15:16 | 45.59319 | 13.93431 | 35925 ft | 464 kts | 341° |
| 2026-05-06 15:17 | 45.65609 | 13.91322 | 35925 ft | 464 kts | 341° |
| 2026-05-06 15:17 | 45.71902 | 13.89213 | 35928 ft | 465 kts | 341° |
| 2026-05-06 15:18 | 45.78209 | 13.87102 | 35966 ft | 466 kts | 341° |
| 2026-05-06 15:18 | 45.84515 | 13.84970 | 35931 ft | 466 kts | 341° |
| 2026-05-06 15:19 | 45.90831 | 13.82825 | 35920 ft | 467 kts | 341° |
| 2026-05-06 15:19 | 45.97157 | 13.80680 | 35917 ft | 467 kts | 341° |
| 2026-05-06 15:20 | 46.03487 | 13.78541 | 35917 ft | 468 kts | 341° |
| 2026-05-06 15:20 | 46.09822 | 13.76394 | 35916 ft | 468 kts | 341° |
| 2026-05-06 15:21 | 46.16159 | 13.74234 | 35914 ft | 468 kts | 341° |
| 2026-05-06 15:21 | 46.22498 | 13.72063 | 35921 ft | 469 kts | 341° |
| 2026-05-06 15:22 | 46.28892 | 13.70074 | 35938 ft | 471 kts | 343° |
| 2026-05-06 15:22 | 46.35371 | 13.68473 | 35913 ft | 473 kts | 345° |
| 2026-05-06 15:23 | 46.41854 | 13.66912 | 35905 ft | 472 kts | 345° |
| 2026-05-06 15:23 | 46.48311 | 13.65236 | 35903 ft | 471 kts | 344° |
| 2026-05-06 15:24 | 46.54760 | 13.63517 | 35897 ft | 471 kts | 344° |
| 2026-05-06 15:24 | 46.61211 | 13.61795 | 35885 ft | 471 kts | 344° |
| 2026-05-06 15:25 | 46.67671 | 13.60098 | 35889 ft | 470 kts | 344° |
| 2026-05-06 15:25 | 46.74092 | 13.58414 | 35894 ft | 470 kts | 344° |
| 2026-05-06 15:26 | 46.80520 | 13.56713 | 35893 ft | 470 kts | 344° |
| 2026-05-06 15:26 | 46.86910 | 13.55018 | 35886 ft | 470 kts | 344° |
| 2026-05-06 15:27 | 46.93338 | 13.53296 | 35873 ft | 470 kts | 344° |
| 2026-05-06 15:27 | 46.99771 | 13.51567 | 35859 ft | 470 kts | 344° |
| 2026-05-06 15:28 | 47.06208 | 13.49850 | 35844 ft | 470 kts | 344° |
| 2026-05-06 15:28 | 47.12646 | 13.48132 | 35834 ft | 470 kts | 344° |
| 2026-05-06 15:29 | 47.19079 | 13.46399 | 35805 ft | 470 kts | 343° |
| 2026-05-06 15:29 | 47.25518 | 13.44659 | 35803 ft | 471 kts | 343° |
| 2026-05-06 15:30 | 47.31982 | 13.42913 | 35781 ft | 473 kts | 343° |
| 2026-05-06 15:30 | 47.38469 | 13.41148 | 35716 ft | 476 kts | 343° |
| 2026-05-06 15:30 | 47.41735 | 13.40258 | 35484 ft | 479 kts | 343° |
| 2026-05-06 15:31 | 47.45013 | 13.39352 | 35213 ft | 480 kts | 341° |
| 2026-05-06 15:31 | 47.48181 | 13.37967 | 34964 ft | 470 kts | 330° |
| 2026-05-06 15:31 | 47.51088 | 13.35870 | 34716 ft | 461 kts | 321° |
| 2026-05-06 15:32 | 47.56102 | 13.30190 | 34200 ft | 455 kts | 312° |
| 2026-05-06 15:32 | 47.58546 | 13.27212 | 33964 ft | 455 kts | 312° |
| 2026-05-06 15:32 | 47.60996 | 13.24242 | 33069 ft | 457 kts | 312° |
| 2026-05-06 15:32 | 47.63462 | 13.21254 | 32061 ft | 459 kts | 312° |
| 2026-05-06 15:33 | 47.65941 | 13.18243 | 31039 ft | 462 kts | 312° |
| 2026-05-06 15:33 | 47.68434 | 13.15208 | 30066 ft | 465 kts | 313° |
| 2026-05-06 15:33 | 47.70945 | 13.12143 | 29013 ft | 468 kts | 313° |
| 2026-05-06 15:33 | 47.73410 | 13.09137 | 28491 ft | 457 kts | 313° |
| 2026-05-06 15:34 | 47.75854 | 13.06161 | 27798 ft | 451 kts | 313° |
| 2026-05-06 15:34 | 47.78252 | 13.03232 | 27139 ft | 445 kts | 313° |
| 2026-05-06 15:34 | 47.80432 | 13.00151 | 26500 ft | 428 kts | 302° |
| 2026-05-06 15:34 | 47.82265 | 12.96711 | 25862 ft | 422 kts | 301° |
| 2026-05-06 15:35 | 47.84070 | 12.93283 | 25241 ft | 419 kts | 301° |
| 2026-05-06 15:35 | 47.86087 | 12.90128 | 24631 ft | 428 kts | 315° |
| 2026-05-06 15:35 | 47.88635 | 12.87775 | 24039 ft | 432 kts | 324° |
| 2026-05-06 15:35 | 47.91257 | 12.85633 | 23429 ft | 429 kts | 324° |
| 2026-05-06 15:36 | 47.93869 | 12.83493 | 22560 ft | 429 kts | 325° |
| 2026-05-06 15:36 | 47.96494 | 12.81319 | 21508 ft | 435 kts | 325° |
| 2026-05-06 15:36 | 47.99152 | 12.79084 | 20407 ft | 442 kts | 325° |
| 2026-05-06 15:36 | 48.01834 | 12.76790 | 19341 ft | 447 kts | 325° |
| 2026-05-06 15:37 | 48.04543 | 12.74445 | 18307 ft | 451 kts | 325° |
| 2026-05-06 15:37 | 48.07205 | 12.71980 | 17306 ft | 445 kts | 318° |
| 2026-05-06 15:37 | 48.09370 | 12.68899 | 16307 ft | 417 kts | 304° |
| 2026-05-06 15:37 | 48.10997 | 12.65447 | 15340 ft | 398 kts | 299° |
| 2026-05-06 15:38 | 48.12517 | 12.62065 | 14410 ft | 385 kts | 299° |
| 2026-05-06 15:38 | 48.13985 | 12.58777 | 13501 ft | 375 kts | 300° |
| 2026-05-06 15:38 | 48.15413 | 12.55565 | 12499 ft | 366 kts | 299° |
| 2026-05-06 15:38 | 48.16805 | 12.52429 | 11528 ft | 357 kts | 299° |
| 2026-05-06 15:39 | 48.18163 | 12.49360 | 10578 ft | 349 kts | 299° |
| 2026-05-06 15:39 | 48.19491 | 12.46355 | 9668 ft | 344 kts | 299° |
| 2026-05-06 15:39 | 48.20818 | 12.43342 | 8973 ft | 346 kts | 299° |
| 2026-05-06 15:39 | 48.22135 | 12.40345 | 8430 ft | 342 kts | 300° |
| 2026-05-06 15:40 | 48.23433 | 12.37393 | 7971 ft | 336 kts | 300° |
| 2026-05-06 15:40 | 48.24710 | 12.34499 | 7553 ft | 330 kts | 300° |
| 2026-05-06 15:40 | 48.25962 | 12.31657 | 7149 ft | 324 kts | 300° |
| 2026-05-06 15:40 | 48.27195 | 12.28858 | 6756 ft | 319 kts | 301° |
| 2026-05-06 15:41 | 48.28396 | 12.26129 | 6373 ft | 305 kts | 301° |
| 2026-05-06 15:41 | 48.29537 | 12.23544 | 5983 ft | 290 kts | 301° |
| 2026-05-06 15:41 | 48.30635 | 12.21054 | 5587 ft | 284 kts | 301° |
| 2026-05-06 15:41 | 48.31713 | 12.18592 | 5294 ft | 279 kts | 301° |
| 2026-05-06 15:42 | 48.32763 | 12.16188 | 5049 ft | 272 kts | 302° |
| 2026-05-06 15:42 | 48.33444 | 12.14631 | 4890 ft | 267 kts | 302° |
| 2026-05-06 15:42 | 48.34396 | 12.12283 | 4655 ft | 260 kts | 296° |
| 2026-05-06 15:42 | 48.35165 | 12.09872 | 4498 ft | 250 kts | 296° |
| 2026-05-06 15:43 | 48.35879 | 12.07547 | 4413 ft | 239 kts | 295° |
| 2026-05-06 15:43 | 48.36369 | 12.05223 | 4324 ft | 230 kts | 273° |
| 2026-05-06 15:43 | 48.36258 | 12.02865 | 4216 ft | 222 kts | 262° |
| 2026-05-06 15:43 | 48.36038 | 12.00632 | 4170 ft | 210 kts | 262° |
| 2026-05-06 15:44 | 48.35856 | 11.98505 | 4014 ft | 199 kts | 263° |
| 2026-05-06 15:44 | 48.35689 | 11.96479 | 3811 ft | 192 kts | 264° |
| 2026-05-06 15:44 | 48.35553 | 11.94500 | 3558 ft | 189 kts | 264° |
| 2026-05-06 15:44 | 48.35415 | 11.92545 | 3290 ft | 187 kts | 264° |
| 2026-05-06 15:45 | 48.35264 | 11.90606 | 3021 ft | 186 kts | 263° |
| 2026-05-06 15:45 | 48.35105 | 11.88732 | 2772 ft | 175 kts | 264° |
| 2026-05-06 15:45 | 48.34979 | 11.86957 | 2476 ft | 167 kts | 265° |
| 2026-05-06 15:45 | 48.34846 | 11.85276 | 2226 ft | 157 kts | 265° |
| 2026-05-06 15:46 | 48.34723 | 11.83693 | 2000 ft | 148 kts | 265° |
| 2026-05-06 15:46 | 48.34610 | 11.82188 | 1756 ft | 142 kts | 265° |
| 2026-05-06 15:46 | 48.34502 | 11.80749 | 1570 ft | 136 kts | 266° |
| 2026-05-06 15:46 | 48.34401 | 11.79404 | 1486 ft | 117 kts | 262° |
| 2026-05-06 15:47 | 48.34325 | 11.78443 | 1485 ft | 68 kts | 263° |
| 2026-05-06 15:47 | 48.34324 | 11.77978 | 1476 ft | 33 kts | 284° |
| 2026-05-06 15:47 | 48.34406 | 11.77683 | 1484 ft | 27 kts | 294° |
| 2026-05-06 15:47 | 48.34455 | 11.77512 | 1475 ft | 12 kts | 295° |
| 2026-05-06 15:48 | 48.34514 | 11.77441 | 1479 ft | 12 kts | 348° |
| 2026-05-06 15:48 | 48.34608 | 11.77427 | 1485 ft | 12 kts | 8° |
| 2026-05-06 15:48 | 48.34635 | 11.77531 | 1484 ft | 11 kts | 83° |
| 2026-05-06 15:48 | 48.34648 | 11.77692 | 1477 ft | 20 kts | 83° |
| 2026-05-06 15:49 | 48.34665 | 11.77912 | 1485 ft | 21 kts | 83° |
| 2026-05-06 15:49 | 48.34681 | 11.78125 | 1485 ft | 20 kts | 83° |
| 2026-05-06 15:49 | 48.34696 | 11.78321 | 1475 ft | 18 kts | 83° |
| 2026-05-06 15:49 | 48.34710 | 11.78502 | 1485 ft | 17 kts | 83° |
| 2026-05-06 15:50 | 48.34722 | 11.78669 | 1485 ft | 16 kts | 84° |
| 2026-05-06 15:50 | 48.34736 | 11.78855 | 1485 ft | 20 kts | 83° |
| 2026-05-06 15:50 | 48.34755 | 11.79082 | 1477 ft | 23 kts | 83° |
| 2026-05-06 15:50 | 48.34773 | 11.79318 | 1483 ft | 23 kts | 83° |
| 2026-05-06 15:51 | 48.34789 | 11.79517 | 1485 ft | 12 kts | 76° |
| 2026-05-06 15:51 | 48.34862 | 11.79556 | 1485 ft | 15 kts | 354° |
| 2026-05-06 15:51 | 48.34966 | 11.79551 | 1485 ft | 13 kts | 17° |
| 2026-05-06 15:51 | 48.35046 | 11.79593 | 1477 ft | 12 kts | 353° |
| 2026-05-06 15:52 | 48.35149 | 11.79574 | 1478 ft | 17 kts | 353° |
| 2026-05-06 15:52 | 48.35274 | 11.79553 | 1485 ft | 19 kts | 353° |
| 2026-05-06 15:52 | 48.35416 | 11.79529 | 1472 ft | 21 kts | 354° |
| 2026-05-06 15:52 | 48.35536 | 11.79509 | 1477 ft | 16 kts | 354° |
| 2026-05-06 15:53 | 48.35605 | 11.79551 | 1474 ft | 10 kts | 66° |
| 2026-05-06 15:53 | 48.35615 | 11.79653 | 1480 ft | 10 kts | 83° |
| 2026-05-06 15:53 | 48.35618 | 11.79692 | 1477 ft | 2 kts | 83° |
| 2026-05-06 15:53 | 48.35619 | 11.79707 | 1481 ft | 1 kts | 83° |